Time;durP1;ratioP1;P1;durP2;ratioP2;P2;SDS_P1;SDS_P2;PMS_P1;PMS_P2;Temp;Humidity;BMP_temperature;BMP_pressure;BME280_temperature;BME280_humidity;BME280_pressure;Samples;Min_cycle;Max_cycle;Signal;HPM_P1;HPM_P2
2022/06/24 00:00:50;;;;;;;1.80;1.70;;;20.40;65.00;;;;;;5193291;28;20194;-48
2022/06/24 00:03:21;;;;;;;2.27;2.07;;;20.40;65.30;;;;;;5192768;28;20314;-48
2022/06/24 00:05:56;;;;;;;2.27;2.17;;;20.40;65.90;;;;;;5192474;28;20191;-48
2022/06/24 00:08:26;;;;;;;2.30;2.20;;;20.40;66.40;;;;;;5192114;28;20622;-49
2022/06/24 00:11:10;;;;;;;2.00;1.90;;;20.30;66.90;;;;;;5188452;28;20514;-48
2022/06/24 00:13:41;;;;;;;2.37;2.27;;;20.30;67.60;;;;;;5184024;28;20181;-48
2022/06/24 00:16:12;;;;;;;2.23;2.00;;;20.30;68.30;;;;;;5185464;28;20430;-47
2022/06/24 00:18:43;;;;;;;2.10;2.00;;;20.20;69.00;;;;;;5194246;28;20848;-48
2022/06/24 00:21:14;;;;;;;1.80;1.80;;;20.20;69.50;;;;;;5189911;28;20224;-48
2022/06/24 00:23:44;;;;;;;6.43;2.07;;;20.20;69.90;;;;;;5196961;28;20670;-48
2022/06/24 00:26:15;;;;;;;4.57;2.40;;;20.10;70.50;;;;;;5201856;28;20421;-47
2022/06/24 00:28:45;;;;;;;2.40;2.30;;;20.10;71.10;;;;;;5187805;28;20669;-46
2022/06/24 00:31:16;;;;;;;2.47;2.23;;;20.10;71.60;;;;;;5198600;28;20473;-47
2022/06/24 00:33:47;;;;;;;3.07;2.67;;;20.10;72.20;;;;;;5185714;28;20179;-48
2022/06/24 00:36:19;;;;;;;2.70;2.60;;;20.00;72.60;;;;;;5200736;28;20176;-47
2022/06/24 00:38:51;;;;;;;2.27;2.27;;;20.00;73.20;;;;;;5191911;28;20442;-48
2022/06/24 00:41:24;;;;;;;4.53;2.60;;;20.00;73.70;;;;;;5198503;28;20538;-47
2022/06/24 00:43:58;;;;;;;2.80;2.60;;;19.90;74.40;;;;;;5203411;28;20444;-47
2022/06/24 00:46:37;;;;;;;7.60;2.37;;;19.90;74.80;;;;;;5194077;28;20536;-47
2022/06/24 00:49:09;;;;;;;2.50;2.40;;;19.90;75.90;;;;;;5191971;28;20515;-48
2022/06/24 00:51:41;;;;;;;3.17;2.97;;;19.90;75.60;;;;;;5195328;28;20771;-48
2022/06/24 00:54:14;;;;;;;2.90;2.70;;;19.90;76.30;;;;;;5182971;28;20431;-48
2022/06/24 00:56:47;;;;;;;5.47;2.87;;;19.90;76.30;;;;;;5200265;28;20438;-47
2022/06/24 00:59:18;;;;;;;2.33;2.20;;;19.90;75.90;;;;;;5198073;28;20799;-48
2022/06/24 01:01:49;;;;;;;2.63;2.53;;;19.90;75.30;;;;;;5190266;28;20465;-47
2022/06/24 01:04:20;;;;;;;3.10;2.93;;;20.00;75.00;;;;;;5202004;28;20675;-46
2022/06/24 01:06:50;;;;;;;2.33;2.13;;;20.00;74.70;;;;;;5199268;28;20434;-47
2022/06/24 01:09:21;;;;;;;2.77;2.67;;;20.00;74.60;;;;;;5198119;28;20210;-47
2022/06/24 01:11:53;;;;;;;2.20;2.20;;;20.00;74.40;;;;;;5192367;28;20795;-49
2022/06/24 01:14:23;;;;;;;3.17;2.87;;;20.00;74.20;;;;;;5194646;28;20832;-47
2022/06/24 01:16:54;;;;;;;2.77;2.60;;;20.00;73.60;;;;;;5196522;28;20477;-47
2022/06/24 01:19:27;;;;;;;3.10;2.77;;;20.00;73.00;;;;;;5203474;28;20267;-47
2022/06/24 01:21:57;;;;;;;2.43;2.23;;;20.00;72.70;;;;;;5198465;28;20222;-48
2022/06/24 01:24:28;;;;;;;3.23;3.10;;;20.00;72.70;;;;;;5186606;28;20443;-50
2022/06/24 01:26:59;;;;;;;2.87;2.77;;;20.00;72.50;;;;;;5205446;28;20914;-48
2022/06/24 01:29:29;;;;;;;2.97;2.50;;;20.00;72.30;;;;;;5197777;28;20239;-47
2022/06/24 01:32:00;;;;;;;2.73;2.60;;;20.00;72.00;;;;;;5195103;28;20204;-48
2022/06/24 01:34:30;;;;;;;5.57;2.97;;;20.00;72.10;;;;;;5205983;28;20246;-48
2022/06/24 01:37:01;;;;;;;3.40;3.00;;;20.00;72.00;;;;;;5204979;28;20194;-47
2022/06/24 01:39:32;;;;;;;3.00;2.63;;;19.90;71.90;;;;;;5190954;28;20282;-47
2022/06/24 01:42:03;;;;;;;2.73;2.40;;;19.90;72.00;;;;;;5196133;28;20470;-47
2022/06/24 01:44:34;;;;;;;2.67;2.57;;;20.00;71.90;;;;;;5194144;28;20236;-47
2022/06/24 01:47:05;;;;;;;2.90;2.70;;;19.90;71.70;;;;;;5177524;28;20435;-47
2022/06/24 01:49:35;;;;;;;3.13;2.93;;;20.00;71.90;;;;;;5203928;28;20966;-47
2022/06/24 01:52:06;;;;;;;3.70;3.37;;;19.90;71.70;;;;;;5198882;28;20241;-47
2022/06/24 01:54:37;;;;;;;2.60;2.50;;;19.90;71.50;;;;;;5192742;28;20184;-47
2022/06/24 01:57:07;;;;;;;2.80;2.60;;;19.90;71.40;;;;;;5199185;28;20180;-47
2022/06/24 01:59:38;;;;;;;2.67;2.50;;;19.90;71.30;;;;;;5201855;28;20194;-47
2022/06/24 02:02:08;;;;;;;2.60;2.40;;;19.90;71.20;;;;;;5204056;28;20195;-47
2022/06/24 02:04:39;;;;;;;6.90;3.20;;;19.90;71.20;;;;;;5198892;28;20195;-47
2022/06/24 02:07:10;;;;;;;5.27;3.03;;;19.90;70.90;;;;;;5205297;28;20179;-47
2022/06/24 02:13:29;;;;;;;3.50;2.90;;;19.90;71.00;;;;;;5201458;28;20215;-47
2022/06/24 02:15:29;;;;;;;4.43;3.30;;;19.90;71.00;;;;;;5184614;28;20431;-46
2022/06/24 02:17:59;;;;;;;4.87;3.80;;;19.90;71.20;;;;;;5202603;28;20541;-46
2022/06/24 02:20:30;;;;;;;3.37;3.17;;;19.80;71.20;;;;;;5193426;28;20208;-46
2022/06/24 02:23:01;;;;;;;3.03;2.83;;;19.80;71.40;;;;;;5188887;28;20200;-50
2022/06/24 02:25:32;;;;;;;2.67;2.57;;;19.80;71.60;;;;;;5192063;28;20215;-46
2022/06/24 02:28:02;;;;;;;3.03;2.70;;;19.80;71.80;;;;;;5198110;28;20240;-46
2022/06/24 02:30:33;;;;;;;10.40;3.10;;;19.70;71.80;;;;;;5199769;28;20215;-49
2022/06/24 02:33:08;;;;;;;6.50;3.43;;;19.70;72.00;;;;;;5198127;28;20347;-47
2022/06/24 02:35:40;;;;;;;2.63;2.10;;;19.70;72.30;;;;;;5194486;28;20430;-47
2022/06/24 02:38:11;;;;;;;4.23;3.03;;;19.60;72.40;;;;;;5188205;28;20423;-46
2022/06/24 02:40:47;;;;;;;4.93;2.90;;;19.60;72.70;;;;;;5196825;28;21002;-46
2022/06/24 02:43:33;;;;;;;9.73;3.17;;;19.60;72.90;;;;;;5200076;28;20195;-47
2022/06/24 02:46:06;;;;;;;5.43;2.80;;;19.50;73.10;;;;;;5183936;28;20953;-47
2022/06/24 02:48:38;;;;;;;9.47;3.77;;;19.50;73.40;;;;;;5201776;28;20540;-48
2022/06/24 02:51:14;;;;;;;3.20;3.10;;;19.50;73.70;;;;;;5191960;28;20993;-46
2022/06/24 02:53:44;;;;;;;3.63;3.33;;;19.50;73.70;;;;;;5191861;28;20437;-48
2022/06/24 02:56:15;;;;;;;3.00;2.90;;;19.50;73.80;;;;;;5197804;28;20944;-46
2022/06/24 02:58:46;;;;;;;6.63;3.23;;;19.50;73.90;;;;;;5197183;28;20645;-48
2022/06/24 03:01:17;;;;;;;3.27;3.00;;;19.40;74.00;;;;;;5185028;28;20295;-48
2022/06/24 03:03:47;;;;;;;2.93;2.73;;;19.40;74.20;;;;;;5193306;28;20656;-46
2022/06/24 03:06:18;;;;;;;3.47;3.27;;;19.40;74.40;;;;;;5188042;28;20188;-46
2022/06/24 03:08:48;;;;;;;7.80;3.13;;;19.40;74.50;;;;;;5189779;28;20241;-47
2022/06/24 03:11:19;;;;;;;6.80;3.10;;;19.40;74.70;;;;;;5189446;28;20195;-48
2022/06/24 03:13:49;;;;;;;3.90;3.00;;;19.40;74.70;;;;;;5200901;28;20180;-46
2022/06/24 03:16:20;;;;;;;3.30;3.13;;;19.40;74.70;;;;;;5195007;28;20203;-47
2022/06/24 03:18:51;;;;;;;3.13;3.03;;;19.40;75.00;;;;;;5199294;28;20191;-47
2022/06/24 03:21:21;;;;;;;3.67;3.37;;;19.40;75.10;;;;;;5197928;28;20199;-47
2022/06/24 03:23:52;;;;;;;3.00;2.90;;;19.40;75.30;;;;;;5197606;28;20647;-47
2022/06/24 03:26:22;;;;;;;7.60;3.27;;;19.40;75.30;;;;;;5192189;28;20620;-46
2022/06/24 03:28:53;;;;;;;3.50;3.20;;;19.40;75.10;;;;;;5185607;28;20555;-46
2022/06/24 03:31:23;;;;;;;4.30;3.40;;;19.40;75.20;;;;;;5187949;28;20211;-46
2022/06/24 03:33:55;;;;;;;3.27;2.97;;;19.40;75.50;;;;;;5193505;28;20187;-46
2022/06/24 03:36:26;;;;;;;3.43;3.23;;;19.40;75.40;;;;;;5196273;28;20816;-49
2022/06/24 03:38:56;;;;;;;5.20;3.60;;;19.40;75.10;;;;;;5200218;28;20437;-48
2022/06/24 03:41:27;;;;;;;3.20;3.10;;;19.50;75.10;;;;;;5187327;28;20220;-47
2022/06/24 03:43:57;;;;;;;4.00;3.63;;;19.50;75.00;;;;;;5201839;28;20252;-46
2022/06/24 03:46:28;;;;;;;5.10;3.47;;;19.60;75.60;;;;;;5191972;28;20190;-47
2022/06/24 03:48:59;;;;;;;3.57;3.27;;;19.60;74.80;;;;;;5196417;28;20225;-47
2022/06/24 03:51:29;;;;;;;3.73;3.50;;;19.70;73.90;;;;;;5193644;28;20211;-47
2022/06/24 03:54:00;;;;;;;6.00;3.30;;;19.70;73.60;;;;;;5187367;28;20187;-46
2022/06/24 03:56:30;;;;;;;6.20;3.30;;;19.80;73.30;;;;;;5196220;28;20210;-47
2022/06/24 03:59:01;;;;;;;5.40;3.57;;;19.80;73.00;;;;;;5187416;28;20235;-47
2022/06/24 04:01:32;;;;;;;3.50;3.20;;;19.90;72.80;;;;;;5191374;28;20231;-46
2022/06/24 04:04:03;;;;;;;3.83;3.40;;;20.00;72.30;;;;;;5200736;28;20176;-47
2022/06/24 04:06:33;;;;;;;4.37;2.93;;;20.00;71.80;;;;;;5205334;28;20184;-47
2022/06/24 04:09:04;;;;;;;3.40;3.20;;;20.10;71.30;;;;;;5198020;28;20195;-52
2022/06/24 04:11:34;;;;;;;3.00;2.80;;;20.10;70.90;;;;;;5192174;28;20199;-47
2022/06/24 04:14:05;;;;;;;3.63;3.33;;;20.20;70.60;;;;;;5198677;28;20204;-47
2022/06/24 04:16:36;;;;;;;3.77;3.57;;;20.30;70.30;;;;;;5204631;28;20179;-47
2022/06/24 04:19:06;;;;;;;6.53;3.40;;;20.40;70.00;;;;;;5194917;28;20184;-48
2022/06/24 04:21:37;;;;;;;4.63;3.03;;;20.50;69.70;;;;;;5195872;28;20210;-51
2022/06/24 04:24:08;;;;;;;3.50;3.20;;;20.60;69.00;;;;;;5200929;28;20184;-47
2022/06/24 04:26:38;;;;;;;3.00;2.87;;;20.70;68.40;;;;;;5197495;28;20195;-47
2022/06/24 04:29:09;;;;;;;4.50;3.80;;;20.90;68.00;;;;;;5187492;28;20215;-46
2022/06/24 04:31:39;;;;;;;4.00;3.80;;;21.00;67.50;;;;;;5193743;28;20199;-47
2022/06/24 04:34:10;;;;;;;3.53;3.33;;;21.20;66.60;;;;;;5202914;28;20234;-47
2022/06/24 04:36:41;;;;;;;8.43;3.50;;;21.30;66.20;;;;;;5193782;28;20200;-48
2022/06/24 04:39:11;;;;;;;4.53;3.63;;;21.50;65.60;;;;;;5187950;28;20196;-47
2022/06/24 04:41:42;;;;;;;3.50;3.33;;;21.80;64.50;;;;;;5188410;28;20227;-47
2022/06/24 04:44:12;;;;;;;4.10;3.70;;;22.10;63.40;;;;;;5188697;28;20191;-47
2022/06/24 04:46:43;;;;;;;3.23;3.10;;;22.60;62.10;;;;;;5203381;28;20186;-48
2022/06/24 04:49:13;;;;;;;4.73;3.33;;;23.00;60.10;;;;;;5197340;28;20216;-47
2022/06/24 04:51:44;;;;;;;7.33;3.40;;;23.60;59.00;;;;;;5193058;28;20204;-48
2022/06/24 04:54:15;;;;;;;4.17;3.17;;;24.10;57.10;;;;;;5194804;28;20182;-48
2022/06/24 04:56:46;;;;;;;4.13;3.43;;;24.20;55.70;;;;;;5202018;28;20198;-47
2022/06/24 04:59:17;;;;;;;4.10;3.10;;;24.60;55.30;;;;;;5202288;28;20431;-48
2022/06/24 05:01:47;;;;;;;3.83;3.50;;;24.90;54.40;;;;;;5187051;28;20214;-49
2022/06/24 05:04:18;;;;;;;3.60;3.30;;;25.40;53.50;;;;;;5190851;28;20230;-47
2022/06/24 05:06:49;;;;;;;3.70;3.40;;;25.90;51.90;;;;;;5197314;28;20187;-47
2022/06/24 05:09:20;;;;;;;4.00;3.60;;;26.30;50.30;;;;;;5200968;28;20227;-48
2022/06/24 05:11:50;;;;;;;3.73;3.30;;;26.40;49.50;;;;;;5200222;28;20497;-48
2022/06/24 05:14:21;;;;;;;3.00;2.90;;;26.50;48.80;;;;;;5198201;28;20180;-47
2022/06/24 05:16:52;;;;;;;4.07;2.87;;;26.90;48.20;;;;;;5190740;28;20185;-48
2022/06/24 05:19:22;;;;;;;3.20;3.00;;;27.60;47.00;;;;;;5189095;28;20255;-48
2022/06/24 05:21:53;;;;;;;3.30;3.10;;;28.30;45.30;;;;;;5190191;28;20299;-48
2022/06/24 05:24:24;;;;;;;5.77;3.90;;;29.00;43.50;;;;;;5204721;28;20192;-47
2022/06/24 05:26:55;;;;;;;7.27;2.80;;;29.70;41.90;;;;;;5184182;28;20184;-51
2022/06/24 05:29:25;;;;;;;3.60;2.70;;;30.40;40.10;;;;;;5195681;28;20667;-48
2022/06/24 05:31:56;;;;;;;8.63;3.20;;;30.80;39.50;;;;;;5192783;28;20724;-48
2022/06/24 05:34:26;;;;;;;6.50;3.87;;;31.40;38.10;;;;;;5193410;28;20176;-48
2022/06/24 05:36:57;;;;;;;2.70;2.60;;;32.20;37.10;;;;;;5191510;28;20199;-47
2022/06/24 05:39:28;;;;;;;18.27;3.67;;;32.40;35.80;;;;;;5192679;28;20219;-48
2022/06/24 05:41:58;;;;;;;3.07;2.90;;;32.50;35.00;;;;;;5190398;28;20222;-48
2022/06/24 05:44:29;;;;;;;5.07;2.43;;;32.50;35.20;;;;;;5197080;28;20580;-47
2022/06/24 05:47:00;;;;;;;3.20;3.00;;;32.80;34.50;;;;;;5196295;28;20266;-46
2022/06/24 05:49:30;;;;;;;5.10;2.63;;;33.20;34.00;;;;;;5195705;28;20218;-46
2022/06/24 05:52:01;;;;;;;2.17;2.07;;;33.50;33.20;;;;;;5188709;28;20203;-48
2022/06/24 05:57:20;;;;;;;3.20;2.80;;;34.50;31.60;;;;;;5188393;28;20337;-49
2022/06/24 05:59:51;;;;;;;6.17;2.63;;;34.40;31.20;;;;;;5193815;28;20175;-48
2022/06/24 06:02:22;;;;;;;2.60;2.20;;;34.70;31.20;;;;;;5187285;28;20203;-48
2022/06/24 06:04:53;;;;;;;6.30;3.10;;;34.90;30.90;;;;;;5196532;28;20183;-47
2022/06/24 06:07:23;;;;;;;2.33;2.13;;;35.60;30.10;;;;;;5191333;28;20183;-48
2022/06/24 06:09:55;;;;;;;6.83;2.50;;;35.70;29.70;;;;;;5188859;28;20203;-47
2022/06/24 06:12:28;;;;;;;3.60;2.03;;;36.10;29.40;;;;;;5192846;28;20234;-47
2022/06/24 06:14:58;;;;;;;2.30;2.20;;;36.40;29.10;;;;;;5193749;28;20569;-49
2022/06/24 06:17:29;;;;;;;6.25;2.30;;;37.00;28.50;;;;;;5187780;28;20210;-48
2022/06/24 06:19:59;;;;;;;9.18;2.20;;;38.10;27.50;;;;;;5182881;28;20187;-48
2022/06/24 06:22:30;;;;;;;2.80;2.60;;;38.60;26.60;;;;;;5192296;28;20217;-47
2022/06/24 06:25:00;;;;;;;5.00;2.47;;;38.10;26.40;;;;;;5184635;28;20307;-48
2022/06/24 06:27:31;;;;;;;3.38;2.95;;;37.90;26.40;;;;;;5186142;28;20199;-51
2022/06/24 06:30:02;;;;;;;5.63;2.38;;;37.70;26.90;;;;;;5184697;28;20203;-48
2022/06/24 06:32:33;;;;;;;2.78;2.15;;;38.50;26.40;;;;;;5182605;28;20231;-48
2022/06/24 06:35:04;;;;;;;2.50;2.30;;;38.60;25.70;;;;;;5188619;28;20553;-52
2022/06/24 06:37:39;;;;;;;2.80;2.42;;;37.90;26.10;;;;;;5193239;28;20286;-47
2022/06/24 06:40:10;;;;;;;2.77;2.57;;;37.80;26.40;;;;;;5189913;28;20212;-47
2022/06/24 06:42:41;;;;;;;9.40;2.80;;;36.80;26.90;;;;;;5192259;28;20700;-48
2022/06/24 06:45:12;;;;;;;3.90;2.30;;;37.00;27.00;;;;;;5196337;28;20179;-47
2022/06/24 06:47:42;;;;;;;2.17;1.95;;;37.30;26.80;;;;;;5196710;28;20206;-47
2022/06/24 06:50:13;;;;;;;4.38;2.20;;;38.40;26.10;;;;;;5189446;28;20211;-49
2022/06/24 06:52:44;;;;;;;8.43;3.58;;;38.80;26.00;;;;;;5188867;28;20565;-50
2022/06/24 06:55:15;;;;;;;7.28;2.60;;;38.60;25.50;;;;;;5198876;28;20240;-47
2022/06/24 06:57:46;;;;;;;2.90;2.70;;;38.60;25.80;;;;;;5191446;28;20203;-48
2022/06/24 07:00:17;;;;;;;3.35;1.85;;;38.90;25.40;;;;;;5185857;28;20231;-50
2022/06/24 07:02:47;;;;;;;10.88;3.40;;;39.70;25.80;;;;;;5192744;28;20216;-48
2022/06/24 07:05:18;;;;;;;2.60;2.40;;;40.70;24.20;;;;;;5197076;28;20175;-47
2022/06/24 07:07:49;;;;;;;4.65;2.78;;;41.50;23.70;;;;;;5194878;28;20214;-48
2022/06/24 07:10:19;;;;;;;2.28;2.17;;;41.00;23.30;;;;;;5193797;28;20211;-47
2022/06/24 07:12:50;;;;;;;6.32;3.00;;;41.40;23.60;;;;;;5189156;28;20199;-49
2022/06/24 07:15:21;;;;;;;3.05;2.22;;;42.30;23.00;;;;;;5186468;28;20179;-51
2022/06/24 07:17:51;;;;;;;3.30;2.13;;;43.00;22.40;;;;;;5193554;28;20641;-48
2022/06/24 07:20:22;;;;;;;2.13;2.03;;;42.20;22.10;;;;;;5192316;28;20175;-48
2022/06/24 07:22:52;;;;;;;2.92;2.55;;;41.50;22.50;;;;;;5195431;28;20589;-48
2022/06/24 07:25:23;;;;;;;4.10;2.35;;;41.10;22.70;;;;;;5194223;28;20554;-48
2022/06/24 07:27:54;;;;;;;28.50;2.63;;;41.50;22.90;;;;;;5192765;28;20256;-48
2022/06/24 07:30:25;;;;;;;3.38;2.58;;;42.20;21.90;;;;;;5195658;28;20227;-51
2022/06/24 07:32:57;;;;;;;2.97;2.05;;;41.50;22.00;;;;;;5184240;28;20211;-51
2022/06/24 07:35:27;;;;;;;3.05;2.50;;;40.90;22.40;;;;;;5194476;28;20238;-47
2022/06/24 07:37:58;;;;;;;2.38;2.28;;;40.40;23.10;;;;;;5197438;28;20924;-49
2022/06/24 07:40:29;;;;;;;5.38;2.35;;;40.60;22.90;;;;;;5191226;28;20187;-48
2022/06/24 07:42:59;;;;;;;2.85;2.65;;;41.10;22.50;;;;;;5190825;23;20413;-46
2022/06/24 07:45:30;;;;;;;14.30;2.72;;;41.70;22.10;;;;;;5179256;28;20223;-47
2022/06/24 07:48:01;;;;;;;5.07;2.08;;;42.60;21.60;;;;;;5181494;28;20188;-46
2022/06/24 07:50:31;;;;;;;4.60;2.42;;;43.30;20.70;;;;;;5159704;28;20219;-47
2022/06/24 07:53:02;;;;;;;3.13;2.20;;;43.70;20.70;;;;;;5179065;28;20630;-46
2022/06/24 07:58:22;;;;;;;2.38;2.28;;;43.50;19.40;;;;;;5181785;28;20183;-46
2022/06/24 08:00:52;;;;;;;2.38;1.98;;;42.10;20.50;;;;;;5179953;28;20199;-45
2022/06/24 08:03:23;;;;;;;5.07;2.83;;;40.80;21.60;;;;;;5177106;28;21851;-46
2022/06/24 08:05:54;;;;;;;4.68;2.35;;;41.20;21.60;;;;;;5177736;28;20184;-47
2022/06/24 08:08:24;;;;;;;3.60;2.20;;;41.90;21.10;;;;;;5159093;28;20683;-46
2022/06/24 08:10:55;;;;;;;6.65;2.15;;;42.40;20.60;;;;;;5182882;28;20187;-46
2022/06/24 08:13:25;;;;;;;5.80;2.13;;;42.20;20.40;;;;;;5179313;28;20301;-49
2022/06/24 08:15:57;;;;;;;1.60;1.50;;;41.90;20.50;;;;;;5175811;28;20192;-46
2022/06/24 08:18:27;;;;;;;10.32;2.28;;;42.00;20.70;;;;;;5180921;28;20192;-47
2022/06/24 08:20:58;;;;;;;3.15;2.13;;;42.10;20.70;;;;;;5178395;28;20187;-46
2022/06/24 08:23:28;;;;;;;1.80;1.70;;;42.50;20.40;;;;;;5179044;28;20257;-46
2022/06/24 08:25:59;;;;;;;4.85;2.10;;;42.20;20.30;;;;;;5180432;28;20187;-46
2022/06/24 08:28:30;;;;;;;2.15;1.95;;;42.00;20.70;;;;;;5175545;28;20644;-47
2022/06/24 08:31:01;;;;;;;2.28;2.13;;;42.40;20.50;;;;;;5175751;28;20317;-48
2022/06/24 08:33:32;;;;;;;7.93;2.25;;;41.10;20.60;;;;;;5173528;28;20227;-47
2022/06/24 08:36:03;;;;;;;3.45;2.45;;;40.00;21.70;;;;;;5179189;28;20275;-48
2022/06/24 08:38:34;;;;;;;7.88;3.00;;;39.90;22.10;;;;;;5197445;28;20180;-47
2022/06/24 08:41:05;;;;;;;2.78;2.58;;;40.50;21.80;;;;;;5164346;28;20183;-48
2022/06/24 08:43:36;;;;;;;2.38;2.17;;;41.40;21.50;;;;;;5177155;28;20258;-48
2022/06/24 08:46:07;;;;;;;3.80;1.85;;;41.40;20.90;;;;;;5175434;28;20242;-48
2022/06/24 08:48:38;;;;;;;2.03;1.92;;;41.20;21.10;;;;;;5175987;28;20185;-48
2022/06/24 08:51:12;;;;;;;1.98;1.98;;;40.40;22.20;;;;;;5173889;28;20188;-48
2022/06/24 08:53:45;;;;;;;2.92;2.05;;;38.70;22.60;;;;;;5177399;28;20259;-47
2022/06/24 08:56:15;;;;;;;4.00;2.65;;;36.60;24.90;;;;;;5179507;28;20183;-45
2022/06/24 08:58:47;;;;;;;2.67;2.43;;;34.70;26.60;;;;;;5181583;28;20195;-47
2022/06/24 09:01:17;;;;;;;12.03;2.60;;;32.70;28.80;;;;;;5163580;28;20196;-46
2022/06/24 09:03:48;;;;;;;2.30;2.10;;;31.80;29.90;;;;;;5180724;28;20299;-45
2022/06/24 09:06:20;;;;;;;2.07;1.97;;;31.10;30.40;;;;;;5183084;28;20184;-46
2022/06/24 09:08:53;;;;;;;2.57;2.37;;;30.60;30.90;;;;;;5180718;28;20497;-51
2022/06/24 09:11:24;;;;;;;4.53;2.30;;;30.20;31.00;;;;;;5178005;28;20931;-49
2022/06/24 09:13:56;;;;;;;2.80;2.13;;;30.10;31.70;;;;;;5180386;28;20493;-45
2022/06/24 09:16:27;;;;;;;7.00;2.60;;;29.70;31.40;;;;;;5183272;28;20208;-50
2022/06/24 09:19:00;;;;;;;2.87;2.67;;;29.50;31.90;;;;;;5183028;28;20510;-46
2022/06/24 09:21:39;;;;;;;2.43;2.23;;;29.40;32.40;;;;;;5172724;28;20266;-48
2022/06/24 09:24:10;;;;;;;2.50;2.40;;;29.40;32.70;;;;;;5196820;28;20541;-45
2022/06/24 09:26:44;;;;;;;2.23;2.10;;;29.20;32.70;;;;;;5178870;28;20530;-46
2022/06/24 09:29:16;;;;;;;2.50;2.50;;;29.20;33.20;;;;;;5176669;28;20455;-45
2022/06/24 09:31:47;;;;;;;8.33;2.40;;;29.40;33.00;;;;;;5177247;28;20565;-46
2022/06/24 09:34:18;;;;;;;6.37;1.73;;;29.40;31.60;;;;;;5178026;28;20981;-45
2022/06/24 09:36:49;;;;;;;2.33;2.23;;;29.50;31.80;;;;;;5175591;28;20676;-46
2022/06/24 09:39:22;;;;;;;2.43;1.83;;;29.50;32.00;;;;;;5180522;28;20494;-50
2022/06/24 09:41:57;;;;;;;2.33;2.23;;;29.50;32.00;;;;;;5182420;28;20227;-46
2022/06/24 09:44:44;;;;;;;5.50;2.07;;;29.60;32.00;;;;;;5181916;28;20547;-45
2022/06/24 09:47:23;;;;;;;2.00;1.90;;;29.80;31.30;;;;;;5182668;28;20438;-47
2022/06/24 09:49:58;;;;;;;3.43;1.90;;;29.70;29.90;;;;;;5181855;28;20458;-48
2022/06/24 09:52:29;;;;;;;2.87;1.50;;;29.80;30.30;;;;;;5181444;28;20455;-50
2022/06/24 09:55:02;;;;;;;1.80;1.70;;;29.90;29.60;;;;;;5179771;28;20424;-47
2022/06/24 09:57:33;;;;;;;4.13;2.00;;;29.70;29.70;;;;;;5182540;28;20476;-49
2022/06/24 10:02:54;;;;;;;4.43;1.83;;;29.60;30.00;;;;;;5183031;28;20945;-48
2022/06/24 10:05:28;;;;;;;2.10;1.90;;;29.60;29.50;;;;;;5180804;28;20447;-48
2022/06/24 10:07:59;;;;;;;1.90;1.80;;;29.60;28.50;;;;;;5181734;28;20467;-47
2022/06/24 10:10:33;;;;;;;6.57;1.60;;;29.60;28.70;;;;;;5178878;28;20507;-48
2022/06/24 10:13:08;;;;;;;2.30;2.10;;;29.80;29.20;;;;;;5180117;28;20454;-46
2022/06/24 10:15:38;;;;;;;2.30;1.70;;;29.70;29.80;;;;;;5182540;28;20492;-47
2022/06/24 10:18:11;;;;;;;3.20;1.80;;;29.50;29.50;;;;;;5182205;28;20423;-48
2022/06/24 10:20:44;;;;;;;1.87;1.80;;;29.50;29.30;;;;;;5182432;28;20192;-48
2022/06/24 10:23:37;;;;;;;5.27;1.70;;;29.40;29.40;;;;;;5185202;28;21033;-47
2022/06/24 10:26:22;;;;;;;2.60;2.20;;;29.40;29.80;;;;;;5177816;28;20471;-47
2022/06/24 10:28:59;;;;;;;2.63;2.33;;;29.50;29.90;;;;;;5172759;28;20488;-47
2022/06/24 10:31:42;;;;;;;1.97;1.87;;;29.60;30.00;;;;;;5178140;28;20537;-49
2022/06/24 10:34:28;;;;;;;7.57;2.47;;;29.60;30.40;;;;;;5177908;28;20427;-48
2022/06/24 10:37:12;;;;;;;6.63;2.37;;;29.60;30.70;;;;;;5179140;28;21033;-48
2022/06/24 10:39:54;;;;;;;2.07;1.97;;;29.80;30.80;;;;;;5177436;28;20843;-48
2022/06/24 10:42:26;;;;;;;1.90;1.80;;;29.90;30.50;;;;;;5176136;28;20544;-50
2022/06/24 10:45:05;;;;;;;2.57;1.80;;;29.90;30.70;;;;;;5184032;28;20537;-48
2022/06/24 10:47:35;;;;;;;1.87;1.77;;;30.00;31.00;;;;;;5169573;28;20438;-48
2022/06/24 10:50:11;;;;;;;1.80;1.70;;;30.20;30.90;;;;;;5173741;28;20522;-49
2022/06/24 10:52:48;;;;;;;1.93;1.83;;;30.30;30.80;;;;;;5176032;28;20560;-49
2022/06/24 10:55:24;;;;;;;7.60;2.50;;;30.30;30.90;;;;;;5175734;28;20428;-47
2022/06/24 10:57:55;;;;;;;1.60;1.60;;;30.30;31.40;;;;;;5177883;28;20465;-47
2022/06/24 11:00:29;;;;;;;3.50;2.07;;;30.30;31.30;;;;;;5179700;28;20827;-48
2022/06/24 11:03:03;;;;;;;2.37;2.17;;;30.30;31.20;;;;;;5177074;28;20484;-48
2022/06/24 11:05:42;;;;;;;40.90;2.90;;;30.30;30.90;;;;;;5178500;28;20449;-48
2022/06/24 11:08:19;;;;;;;1.80;1.70;;;30.20;31.00;;;;;;5178807;28;20462;-48
2022/06/24 11:10:51;;;;;;;1.90;1.80;;;30.00;31.00;;;;;;5175460;28;20475;-49
2022/06/24 11:13:23;;;;;;;1.70;1.70;;;30.20;31.10;;;;;;5179179;28;20451;-49
2022/06/24 11:15:56;;;;;;;3.20;3.00;;;30.40;30.90;;;;;;5178840;28;20462;-49
2022/06/24 11:18:35;;;;;;;2.30;2.10;;;30.50;30.90;;;;;;5178354;28;20470;-47
2022/06/24 11:21:08;;;;;;;6.63;2.47;;;30.50;30.70;;;;;;5182017;28;20458;-49
2022/06/24 11:23:40;;;;;;;9.07;2.73;;;30.50;30.90;;;;;;5178622;28;20426;-47
2022/06/24 11:26:15;;;;;;;2.33;2.13;;;30.40;31.00;;;;;;5194202;28;20442;-46
2022/06/24 11:28:53;;;;;;;1.97;1.83;;;30.40;31.50;;;;;;5179712;28;20433;-47
2022/06/24 11:31:29;;;;;;;4.97;2.53;;;30.40;31.40;;;;;;5173047;28;20582;-48
2022/06/24 11:34:05;;;;;;;2.37;2.27;;;30.50;32.00;;;;;;5170301;28;20435;-47
2022/06/24 11:36:37;;;;;;;3.50;2.33;;;30.60;31.30;;;;;;5172909;28;20434;-47
2022/06/24 11:39:09;;;;;;;2.07;1.97;;;30.50;31.20;;;;;;5176828;28;20439;-48
2022/06/24 11:41:46;;;;;;;3.30;2.03;;;30.20;31.30;;;;;;5176536;28;20582;-47
2022/06/24 11:44:30;;;;;;;2.77;2.57;;;30.20;31.80;;;;;;5180134;28;20450;-48
2022/06/24 11:47:01;;;;;;;8.93;2.33;;;30.20;31.90;;;;;;5174784;28;20891;-47
2022/06/24 11:49:33;;;;;;;2.37;2.17;;;30.30;32.40;;;;;;5173831;28;20477;-48
2022/06/24 11:52:04;;;;;;;20.30;2.80;;;30.30;31.80;;;;;;5177420;28;20204;-49
2022/06/24 11:54:34;;;;;;;2.30;2.17;;;30.50;31.10;;;;;;5175925;28;20480;-49
2022/06/24 11:57:09;;;;;;;7.00;2.07;;;30.50;30.20;;;;;;5181200;28;20434;-48
2022/06/24 11:59:41;;;;;;;2.40;1.93;;;30.60;30.30;;;;;;5172774;28;20287;-49
2022/06/24 12:02:14;;;;;;;3.50;2.53;;;30.90;30.50;;;;;;5175700;28;20471;-46
2022/06/24 12:04:47;;;;;;;7.17;2.67;;;31.20;30.40;;;;;;5178775;28;20450;-47
2022/06/24 12:07:18;;;;;;;2.97;2.30;;;31.20;30.60;;;;;;5179833;28;20188;-48
2022/06/24 12:09:49;;;;;;;5.30;2.30;;;31.50;30.40;;;;;;5174505;28;20466;-48
2022/06/24 12:12:20;;;;;;;10.13;2.30;;;31.70;30.00;;;;;;5180036;28;20692;-47
2022/06/24 12:14:55;;;;;;;2.50;2.30;;;31.80;28.80;;;;;;5176865;28;20531;-50
2022/06/24 12:17:25;;;;;;;2.00;1.90;;;32.00;28.70;;;;;;5181355;28;20358;-49
2022/06/24 12:19:59;;;;;;;5.30;1.70;;;32.20;28.50;;;;;;5181537;28;20331;-48
2022/06/24 12:22:30;;;;;;;3.30;1.30;;;32.50;27.90;;;;;;5179462;28;20208;-48
2022/06/24 12:25:03;;;;;;;6.63;2.00;;;32.90;27.60;;;;;;5181315;28;20214;-47
2022/06/24 12:27:36;;;;;;;2.40;2.07;;;33.20;28.20;;;;;;5181707;28;20281;-48
2022/06/24 12:30:20;;;;;;;4.67;1.77;;;33.00;27.90;;;;;;5182910;28;20286;-46
2022/06/24 12:32:59;;;;;;;8.10;2.67;;;32.60;28.10;;;;;;5184029;28;20226;-48
2022/06/24 12:35:34;;;;;;;2.17;1.90;;;32.30;28.50;;;;;;5172980;28;20211;-50
2022/06/24 12:38:11;;;;;;;2.30;2.03;;;32.20;28.90;;;;;;5183036;28;20598;-48
2022/06/24 12:40:42;;;;;;;2.60;2.50;;;32.20;28.40;;;;;;5182741;28;20441;-48
2022/06/24 12:43:13;;;;;;;3.90;2.10;;;32.20;28.30;;;;;;5183575;28;21679;-51
2022/06/24 12:45:44;;;;;;;3.33;2.27;;;32.20;28.10;;;;;;5187804;28;20599;-49
2022/06/24 12:51:12;;;;;;;7.50;2.73;;;32.20;28.30;;;;;;5182707;28;20520;-49
2022/06/24 12:53:46;;;;;;;1.87;1.73;;;32.40;27.70;;;;;;5179951;28;21005;-48
2022/06/24 12:56:17;;;;;;;4.57;1.80;;;32.50;26.40;;;;;;5181025;28;20606;-51
2022/06/24 12:58:53;;;;;;;4.10;1.80;;;32.50;25.80;;;;;;5181662;28;20227;-47
2022/06/24 13:01:24;;;;;;;1.47;1.37;;;32.50;25.70;;;;;;5186897;28;20196;-48
2022/06/24 13:03:55;;;;;;;3.87;2.60;;;32.40;26.10;;;;;;5187574;28;20180;-48
2022/06/24 13:06:25;;;;;;;3.93;1.90;;;32.50;26.30;;;;;;5182414;28;20531;-50
2022/06/24 13:08:56;;;;;;;2.20;2.00;;;32.50;26.70;;;;;;5176397;28;20211;-46
2022/06/24 13:11:27;;;;;;;2.00;1.53;;;32.50;26.60;;;;;;5183937;28;20693;-48
2022/06/24 13:13:58;;;;;;;3.60;1.80;;;32.60;26.30;;;;;;5183570;28;20187;-50
2022/06/24 13:16:29;;;;;;;1.83;1.73;;;32.80;25.90;;;;;;5185222;28;20184;-49
2022/06/24 13:19:00;;;;;;;1.60;1.60;;;33.00;25.50;;;;;;5187062;28;20597;-51
2022/06/24 13:21:30;;;;;;;1.90;1.20;;;33.20;25.20;;;;;;5183334;28;20203;-53
2022/06/24 13:24:01;;;;;;;7.83;1.93;;;33.40;25.10;;;;;;5185101;28;20710;-50